createdAt,value
2019-05-17T00:01:53.196Z,101207.44
2019-05-17T00:04:21.421Z,101206.05
2019-05-17T00:06:49.659Z,101201.86
2019-05-17T00:09:17.903Z,101210.69
2019-05-17T00:11:47.298Z,101194.91
2019-05-17T00:14:16.827Z,101200.70
2019-05-17T00:16:46.942Z,101189.37
2019-05-17T00:19:16.895Z,101190.22
2019-05-17T00:21:47.330Z,101184.08
2019-05-17T00:24:15.023Z,101187.66
2019-05-17T00:26:43.248Z,101188.45
2019-05-17T00:29:11.468Z,101189.02
2019-05-17T00:31:39.690Z,101180.38
2019-05-17T00:34:07.906Z,101186.75
2019-05-17T00:36:37.444Z,101183.14
2019-05-17T00:39:07.419Z,101179.52
2019-05-17T00:41:37.455Z,101172.30
2019-05-17T00:44:06.345Z,101168.47
2019-05-17T00:46:37.107Z,101164.86
2019-05-17T00:49:06.498Z,101167.94
2019-05-17T00:51:36.726Z,101166.33
2019-05-17T00:54:06.642Z,101170.48
2019-05-17T00:56:37.041Z,101168.29
2019-05-17T00:59:04.825Z,101166.06
2019-05-17T01:01:33.291Z,101161.92
2019-05-17T01:04:01.540Z,101160.58
2019-05-17T01:06:29.827Z,101156.48
2019-05-17T01:09:01.805Z,101158.47
2019-05-17T01:11:27.988Z,101149.91
2019-05-17T01:13:58.504Z,101160.17
2019-05-17T01:16:27.186Z,101161.55
2019-05-17T01:18:57.364Z,101157.68
2019-05-17T01:21:26.261Z,101160.45
2019-05-17T01:23:56.275Z,101153.53
2019-05-17T01:26:26.565Z,101153.30
2019-05-17T01:28:54.514Z,101156.61
2019-05-17T01:31:22.755Z,101149.16
2019-05-17T01:33:50.944Z,101141.40
2019-05-17T01:36:19.170Z,101146.97
2019-05-17T01:38:47.383Z,101138.69
2019-05-17T01:41:17.387Z,101140.06
2019-05-17T01:43:47.492Z,101137.30
2019-05-17T01:46:17.163Z,101131.68
2019-05-17T01:48:47.073Z,101123.66
2019-05-17T01:51:16.943Z,101128.08
2019-05-17T01:53:46.980Z,101119.55
2019-05-17T01:56:16.929Z,101118.17
2019-05-17T01:58:47.047Z,101111.84
2019-05-17T02:01:16.968Z,101112.99
2019-05-17T02:03:46.939Z,101111.88
2019-05-17T02:06:16.516Z,101109.66
2019-05-17T02:08:47.352Z,101099.17
2019-05-17T02:11:18.193Z,101108.62
2019-05-17T02:13:46.698Z,101100.86
2019-05-17T02:16:16.550Z,101098.37
2019-05-17T02:18:46.607Z,101093.14
2019-05-17T02:21:16.846Z,101094.53
2019-05-17T02:23:46.947Z,101093.98
2019-05-17T02:26:17.191Z,101100.36
2019-05-17T02:28:44.705Z,101087.08
2019-05-17T02:31:13.496Z,101085.16
2019-05-17T02:33:43.039Z,101089.58
2019-05-17T02:36:14.212Z,101092.34
2019-05-17T02:38:43.603Z,101090.99
2019-05-17T02:41:14.225Z,101087.69
2019-05-17T02:43:43.401Z,101094.84
2019-05-17T02:46:13.586Z,101089.53
2019-05-17T02:48:42.849Z,101089.77
2019-05-17T02:51:13.040Z,101095.55
2019-05-17T02:53:42.885Z,101093.88
2019-05-17T02:56:13.324Z,101098.59
2019-05-17T02:58:43.843Z,101091.09
2019-05-17T03:01:12.671Z,101095.25
2019-05-17T03:03:43.678Z,101093.86
2019-05-17T03:06:13.668Z,101094.71
2019-05-17T03:08:42.953Z,101102.74
2019-05-17T03:11:13.588Z,100947.58
2019-05-17T03:13:43.388Z,101101.93
2019-05-17T03:16:14.370Z,101108.27
2019-05-17T03:18:43.665Z,101107.46
2019-05-17T03:21:13.330Z,101103.05
2019-05-17T03:23:43.443Z,101106.09
2019-05-17T03:26:13.087Z,101109.16
2019-05-17T03:28:42.665Z,101105.01
2019-05-17T03:31:16.805Z,101096.45
2019-05-17T03:33:45.310Z,101098.09
2019-05-17T03:36:16.037Z,101101.41
2019-05-17T03:38:42.981Z,101092.80
2019-05-17T03:41:22.261Z,101092.22
2019-05-17T03:43:43.933Z,101094.44
2019-05-17T03:46:13.639Z,101092.48
2019-05-17T03:48:43.281Z,101089.48
2019-05-17T03:51:12.977Z,101085.66
2019-05-17T03:53:43.874Z,101083.20
2019-05-17T03:56:13.158Z,101078.25
2019-05-17T03:58:43.055Z,101089.34
2019-05-17T04:01:09.853Z,101089.34
2019-05-17T04:03:38.067Z,101091.57
2019-05-17T04:06:06.345Z,101091.27
2019-05-17T04:08:34.560Z,100920.19
2019-05-17T04:11:20.642Z,101092.64
2019-05-17T04:13:33.999Z,101095.11
2019-05-17T04:16:05.902Z,101099.83
2019-05-17T04:18:33.599Z,101097.60
2019-05-17T04:21:03.385Z,101097.91
2019-05-17T04:23:33.975Z,101090.45
2019-05-17T04:26:04.272Z,101090.99
2019-05-17T04:28:33.567Z,101094.61
2019-05-17T04:31:02.905Z,101095.72
2019-05-17T04:33:33.575Z,101093.80
2019-05-17T04:36:02.700Z,101099.55
2019-05-17T04:38:33.159Z,101094.83
2019-05-17T04:41:03.198Z,101093.18
2019-05-17T04:43:33.462Z,101093.76
2019-05-17T04:46:02.834Z,101093.53
2019-05-17T04:48:32.748Z,101100.75
2019-05-17T04:51:02.543Z,101097.22
2019-05-17T04:53:32.829Z,101097.60
2019-05-17T04:56:03.038Z,101094.33
2019-05-17T04:58:33.483Z,101102.94
2019-05-17T05:01:03.623Z,101094.11
2019-05-17T05:03:32.591Z,101102.44
2019-05-17T05:06:02.991Z,101098.33
2019-05-17T05:08:33.049Z,101098.36
2019-05-17T05:11:03.673Z,101090.06
2019-05-17T05:13:33.360Z,101091.48
2019-05-17T05:16:03.070Z,101088.20
2019-05-17T05:18:32.659Z,101081.05
2019-05-17T05:21:03.204Z,101092.66
2019-05-17T05:23:31.839Z,101091.00
2019-05-17T05:26:02.801Z,101087.73
2019-05-17T05:28:31.722Z,101090.77
2019-05-17T05:31:01.961Z,101087.42
2019-05-17T05:33:32.786Z,101096.27
2019-05-17T05:36:02.054Z,101095.42
2019-05-17T05:38:31.992Z,101095.13
2019-05-17T05:41:01.814Z,101098.73
2019-05-17T05:43:32.417Z,101095.39
2019-05-17T05:46:02.324Z,101106.19
2019-05-17T05:48:29.801Z,101097.08
2019-05-17T05:50:58.061Z,101095.39
2019-05-17T05:53:26.278Z,101098.16
2019-05-17T05:55:54.501Z,101097.34
2019-05-17T05:58:23.973Z,101102.64
2019-05-17T06:00:53.250Z,101098.02
2019-05-17T06:03:22.479Z,101096.70
2019-05-17T06:05:52.524Z,101088.48
2019-05-17T06:08:22.705Z,101093.54
2019-05-17T06:10:53.168Z,101086.95
2019-05-17T06:13:21.814Z,101080.89
2019-05-17T06:15:51.779Z,101078.70
2019-05-17T06:18:22.487Z,101080.70
2019-05-17T06:20:52.284Z,101076.09
2019-05-17T06:23:20.177Z,101079.56
2019-05-17T06:25:48.379Z,101074.92
2019-05-17T06:28:18.958Z,101073.05
2019-05-17T06:30:46.537Z,101068.38
2019-05-17T06:33:27.165Z,101068.44
2019-05-17T06:35:44.721Z,101067.69
2019-05-17T06:38:12.929Z,101063.30
2019-05-17T06:40:42.121Z,101060.84
2019-05-17T06:43:12.897Z,101065.02
2019-05-17T06:45:41.880Z,101060.59
2019-05-17T06:48:11.728Z,101062.83
2019-05-17T06:50:42.545Z,101067.81
2019-05-17T06:53:12.203Z,101068.08
2019-05-17T06:55:42.367Z,101066.70
2019-05-17T06:58:11.777Z,101064.76
2019-05-17T07:00:40.547Z,101062.55
2019-05-17T07:03:09.538Z,101060.59
2019-05-17T07:05:40.430Z,101063.95
2019-05-17T07:08:10.843Z,101061.20
2019-05-17T07:10:39.806Z,101062.88
2019-05-17T07:13:10.519Z,101067.05
2019-05-17T07:15:46.366Z,101064.24
2019-05-17T07:18:10.229Z,101070.08
2019-05-17T07:20:39.477Z,101070.92
2019-05-17T07:23:10.467Z,101066.49
2019-05-17T07:25:39.771Z,101065.72
2019-05-17T07:28:10.109Z,101069.88
2019-05-17T07:30:39.947Z,101070.44
2019-05-17T07:33:10.078Z,101073.20
2019-05-17T07:35:39.798Z,101070.72
2019-05-17T07:38:10.310Z,101069.31
2019-05-17T07:40:39.887Z,101044.34
2019-05-17T07:43:13.933Z,101061.25
2019-05-17T07:45:40.167Z,101050.14
2019-05-17T07:48:09.772Z,101055.41
2019-05-17T07:50:39.793Z,101053.47
2019-05-17T07:53:10.370Z,101046.52
2019-05-17T07:55:39.880Z,101044.29
2019-05-17T07:58:09.938Z,101049.56
2019-05-17T08:00:40.080Z,101041.23
2019-05-17T08:03:12.965Z,101045.39
2019-05-17T08:05:40.307Z,101043.19
2019-05-17T08:08:09.666Z,101046.25
2019-05-17T08:10:40.521Z,101047.94
2019-05-17T08:13:22.833Z,101054.32
2019-05-17T08:15:39.744Z,101042.38
2019-05-17T08:18:10.503Z,101054.62
2019-05-17T08:20:39.970Z,101045.42
2019-05-17T08:23:10.221Z,101042.09
2019-05-17T08:25:49.626Z,101052.66
2019-05-17T08:28:10.666Z,101045.15
2019-05-17T08:30:40.555Z,101047.62
2019-05-17T08:33:10.471Z,101046.52
2019-05-17T08:35:39.891Z,101051.23
2019-05-17T08:38:10.034Z,101044.30
2019-05-17T08:40:40.071Z,101049.30
2019-05-17T08:43:09.750Z,101049.86
2019-05-17T08:45:37.528Z,101052.59
2019-05-17T08:48:05.754Z,101055.62
2019-05-17T08:50:33.973Z,101055.05
2019-05-17T08:53:02.487Z,101054.23
2019-05-17T08:55:30.691Z,101049.52
2019-05-17T08:58:01.003Z,101058.95
2019-05-17T09:00:31.459Z,101051.16
2019-05-17T09:03:00.077Z,101053.33
2019-05-17T09:05:30.274Z,101051.61
2019-05-17T09:08:00.105Z,101041.20
2019-05-17T09:10:29.961Z,101034.14
2019-05-17T09:12:59.724Z,101035.50
2019-05-17T09:15:29.650Z,101037.69
2019-05-17T09:18:00.126Z,101030.08
2019-05-17T09:20:29.599Z,101032.02
2019-05-17T09:22:59.968Z,101019.75
2019-05-17T09:25:30.103Z,101032.48
2019-05-17T09:27:57.786Z,101020.16
2019-05-17T09:30:26.018Z,101022.03
2019-05-17T09:32:54.240Z,101021.56
2019-05-17T09:35:22.453Z,101020.67
2019-05-17T09:37:50.669Z,101020.67
2019-05-17T09:40:20.024Z,101012.63
2019-05-17T09:42:49.890Z,101015.11
2019-05-17T09:45:20.136Z,101009.44
2019-05-17T09:47:50.612Z,100999.55
2019-05-17T09:50:19.993Z,101001.22
2019-05-17T09:52:49.489Z,100995.86
2019-05-17T09:55:19.650Z,100974.62
2019-05-17T09:57:49.674Z,101002.48
2019-05-17T10:00:20.605Z,100992.83
2019-05-17T10:02:50.530Z,100993.37
2019-05-17T10:05:20.189Z,100980.21
2019-05-17T10:07:50.452Z,100983.53
2019-05-17T10:10:20.085Z,100974.66
2019-05-17T10:12:49.689Z,100974.03
2019-05-17T10:15:17.878Z,100968.39
2019-05-17T10:17:46.155Z,100966.84
2019-05-17T10:20:14.377Z,100967.84
2019-05-17T10:22:42.616Z,100961.64
2019-05-17T10:25:10.836Z,100957.95
2019-05-17T10:27:40.656Z,100962.80
2019-05-17T10:30:10.302Z,100955.75
2019-05-17T10:32:40.824Z,100950.85
2019-05-17T10:35:08.769Z,100945.83
2019-05-17T10:37:36.985Z,100950.75
2019-05-17T10:40:10.196Z,100949.33
2019-05-17T10:42:39.533Z,100944.95
2019-05-17T10:45:10.559Z,100942.91
2019-05-17T10:47:39.634Z,100947.27
2019-05-17T10:50:10.543Z,100940.77
2019-05-17T10:52:40.967Z,100950.19
2019-05-17T10:55:10.515Z,100943.11
2019-05-17T10:57:38.439Z,100941.33
2019-05-17T11:00:09.854Z,100939.04
2019-05-17T11:02:37.452Z,100934.70
2019-05-17T11:05:06.374Z,100938.55
2019-05-17T11:07:34.596Z,100937.12
2019-05-17T11:10:03.015Z,100939.31
2019-05-17T11:12:31.241Z,100944.73
2019-05-17T11:15:10.398Z,100943.84
2019-05-17T11:17:29.378Z,100936.52
2019-05-17T11:19:57.617Z,100939.22
2019-05-17T11:22:25.836Z,100933.66
2019-05-17T11:24:54.060Z,100938.91
2019-05-17T11:27:22.252Z,100925.02
2019-05-17T11:29:50.498Z,100925.73
2019-05-17T11:32:19.245Z,100923.39
2019-05-17T11:34:47.466Z,100922.36
2019-05-17T11:37:15.695Z,100917.44
2019-05-17T11:39:43.895Z,100915.70
2019-05-17T11:42:12.122Z,100916.89
2019-05-17T11:44:40.371Z,100910.58
2019-05-17T11:47:08.577Z,100911.06
2019-05-17T11:49:36.795Z,100902.32
2019-05-17T11:52:05.070Z,100908.91
2019-05-17T11:54:33.250Z,100908.70
2019-05-17T11:57:01.478Z,100911.59
2019-05-17T11:59:29.689Z,100908.84
2019-05-17T12:01:57.907Z,100901.82
2019-05-17T12:04:26.248Z,100904.05
2019-05-17T12:06:54.549Z,100899.03
2019-05-17T12:09:36.475Z,100893.67
2019-05-17T12:11:52.714Z,100899.19
2019-05-17T12:14:20.937Z,100894.72
2019-05-17T12:16:49.141Z,100893.41
2019-05-17T12:19:17.423Z,100888.19
2019-05-17T12:21:45.654Z,100890.23
2019-05-17T12:24:13.868Z,100890.13
2019-05-17T12:26:42.167Z,100885.25
2019-05-17T12:29:10.444Z,100882.16
2019-05-17T12:31:38.990Z,100893.16
2019-05-17T12:34:07.200Z,100883.95
2019-05-17T12:36:35.416Z,100880.80
2019-05-17T12:39:04.638Z,100880.24
2019-05-17T12:41:32.883Z,100876.67
2019-05-17T12:44:01.126Z,100871.89
2019-05-17T12:46:29.334Z,100876.11
2019-05-17T12:48:58.041Z,100873.48
2019-05-17T12:51:26.259Z,100872.27
2019-05-17T12:53:54.605Z,100868.27
2019-05-17T12:56:22.880Z,100872.08
2019-05-17T12:58:51.259Z,100867.58
2019-05-17T13:01:19.483Z,100863.28
2019-05-17T13:03:47.708Z,100871.69
2019-05-17T13:06:15.924Z,100867.06
2019-05-17T13:08:44.149Z,100863.67
2019-05-17T13:11:12.354Z,100872.58
2019-05-17T13:13:41.126Z,100877.63
2019-05-17T13:16:17.944Z,100865.14
2019-05-17T13:18:39.561Z,100873.39
2019-05-17T13:21:07.774Z,100865.38
2019-05-17T13:23:36.007Z,100855.53
2019-05-17T13:26:04.215Z,100851.57
2019-05-17T13:28:32.750Z,100852.03
2019-05-17T13:31:00.950Z,100850.91
2019-05-17T13:33:29.960Z,100856.73
2019-05-17T13:35:58.216Z,100857.02
2019-05-17T13:38:26.483Z,100849.89
2019-05-17T13:40:54.697Z,100842.81
2019-05-17T13:43:22.922Z,100842.60
2019-05-17T13:45:51.149Z,100836.86
2019-05-17T13:48:19.353Z,100831.83
2019-05-17T13:50:51.608Z,100834.63
2019-05-17T13:53:17.559Z,100831.83
2019-05-17T13:55:45.789Z,100844.56
2019-05-17T13:58:14.068Z,100843.39
2019-05-17T14:00:42.290Z,100836.54
2019-05-17T14:03:10.494Z,100836.27
2019-05-17T14:05:38.709Z,100833.83
2019-05-17T14:08:06.949Z,100841.52
2019-05-17T14:10:35.160Z,100839.49
2019-05-17T14:13:03.417Z,100840.17
2019-05-17T14:15:31.611Z,100836.30
2019-05-17T14:17:59.852Z,100844.05
2019-05-17T14:20:28.063Z,100844.33
2019-05-17T14:22:56.460Z,100847.87
2019-05-17T14:25:24.686Z,100846.86
2019-05-17T14:27:53.018Z,100846.67
2019-05-17T14:30:21.411Z,100841.73
2019-05-17T14:32:49.634Z,100846.05
2019-05-17T14:35:17.853Z,100845.02
2019-05-17T14:37:46.067Z,100845.97
2019-05-17T14:40:14.303Z,100847.64
2019-05-17T14:42:42.526Z,100841.81
2019-05-17T14:45:10.735Z,100838.84
2019-05-17T14:47:38.953Z,100836.37
2019-05-17T14:50:07.503Z,100837.26
2019-05-17T14:52:35.802Z,100845.73
2019-05-17T14:55:04.390Z,100836.21
2019-05-17T14:57:32.609Z,100833.85
2019-05-17T15:00:00.852Z,100837.84
2019-05-17T15:02:29.058Z,100830.31
2019-05-17T15:04:57.272Z,100829.98
2019-05-17T15:07:25.503Z,100822.47
2019-05-17T15:09:53.719Z,100819.90
2019-05-17T15:12:28.295Z,100818.27
2019-05-17T15:14:51.921Z,100821.35
2019-05-17T15:17:20.160Z,100819.06
2019-05-17T15:19:51.225Z,100815.12
2019-05-17T15:22:18.314Z,100812.56
2019-05-17T15:24:46.702Z,100806.60
2019-05-17T15:27:14.917Z,100809.30
2019-05-17T15:29:43.131Z,100800.33
2019-05-17T15:32:11.357Z,100803.75
2019-05-17T15:34:39.678Z,100799.52
2019-05-17T15:37:07.932Z,100803.86
2019-05-17T15:39:36.170Z,100794.59
2019-05-17T15:42:04.417Z,100792.91
2019-05-17T15:44:32.634Z,100797.95
2019-05-17T15:47:00.838Z,100797.91
2019-05-17T15:49:29.064Z,100792.75
2019-05-17T15:51:57.270Z,100791.67
2019-05-17T15:54:25.514Z,100792.70
2019-05-17T15:56:53.734Z,100797.78
2019-05-17T15:59:21.964Z,100797.59
2019-05-17T16:01:50.221Z,100794.34
2019-05-17T16:04:18.418Z,100793.83
2019-05-17T16:06:46.652Z,100794.89
2019-05-17T16:09:14.857Z,100792.61
2019-05-17T16:11:43.122Z,100787.20
2019-05-17T16:14:11.387Z,100775.39
2019-05-17T16:16:39.605Z,100776.41
2019-05-17T16:19:07.874Z,100778.00
2019-05-17T16:21:36.151Z,100774.64
2019-05-17T16:24:04.540Z,100777.87
2019-05-17T16:26:32.754Z,100775.50
2019-05-17T16:29:01.033Z,100773.41
2019-05-17T16:31:29.259Z,100662.59
2019-05-17T16:33:57.477Z,100762.59
2019-05-17T16:36:25.695Z,100771.95
2019-05-17T16:38:53.908Z,100769.35
2019-05-17T16:41:22.158Z,100769.55
2019-05-17T16:43:50.381Z,100768.09
2019-05-17T16:46:18.587Z,100764.36
2019-05-17T16:48:46.811Z,100763.98
2019-05-17T16:51:15.143Z,100759.73
2019-05-17T16:53:43.345Z,100756.28
2019-05-17T16:56:11.564Z,100757.07
2019-05-17T16:58:39.786Z,100761.51
2019-05-17T17:01:08.053Z,100756.50
2019-05-17T17:03:44.281Z,100757.17
2019-05-17T17:06:10.117Z,100758.44
2019-05-17T17:08:36.189Z,100754.05
2019-05-17T17:11:04.402Z,100756.34
2019-05-17T17:13:33.511Z,100728.98
2019-05-17T17:16:02.026Z,100755.55
2019-05-17T17:18:30.322Z,100749.72
2019-05-17T17:20:58.543Z,100746.09
2019-05-17T17:23:26.762Z,100751.41
2019-05-17T17:25:54.994Z,100741.43
2019-05-17T17:28:25.527Z,100742.83
2019-05-17T17:30:53.146Z,100740.92
2019-05-17T17:33:21.425Z,100743.72
2019-05-17T17:35:49.587Z,100741.48
2019-05-17T17:38:17.802Z,100761.33
2019-05-17T17:40:46.050Z,100748.19
2019-05-17T17:43:15.914Z,100752.05
2019-05-17T17:45:44.133Z,100748.89
2019-05-17T17:48:12.422Z,100747.95
2019-05-17T17:50:40.657Z,100747.57
2019-05-17T17:53:08.894Z,100748.03
2019-05-17T17:55:37.108Z,100743.19
2019-05-17T17:58:05.315Z,100745.87
2019-05-17T18:00:33.546Z,100741.17
2019-05-17T18:03:01.804Z,100743.51
2019-05-17T18:05:30.022Z,100745.52
2019-05-17T18:07:58.249Z,100745.85
2019-05-17T18:10:28.211Z,100742.54
2019-05-17T18:12:56.420Z,100742.35
2019-05-17T18:15:36.971Z,100738.31
2019-05-17T18:18:05.150Z,100734.25
2019-05-17T18:20:33.384Z,100742.45
2019-05-17T18:23:01.602Z,100739.16
2019-05-17T18:25:29.824Z,100744.02
2019-05-17T18:27:58.036Z,100750.86
2019-05-17T18:30:26.274Z,100745.95
2019-05-17T18:32:54.508Z,100748.61
2019-05-17T18:35:22.730Z,100750.38
2019-05-17T18:37:50.953Z,100752.45
2019-05-17T18:40:19.169Z,100767.72
2019-05-17T18:42:47.382Z,100766.21
2019-05-17T18:45:15.792Z,100758.59
2019-05-17T18:47:44.003Z,100752.94
2019-05-17T18:50:13.094Z,100755.92
2019-05-17T18:52:41.488Z,100754.20
2019-05-17T18:55:09.694Z,100761.34
2019-05-17T18:57:37.921Z,100730.86
2019-05-17T19:02:47.713Z,100771.70
2019-05-17T19:05:16.404Z,100775.58
2019-05-17T19:07:44.653Z,100777.48
2019-05-17T19:10:12.892Z,100779.63
2019-05-17T19:12:41.144Z,100776.49
2019-05-17T19:15:09.347Z,100782.22
2019-05-17T19:17:37.593Z,100783.75
2019-05-17T19:20:07.030Z,100791.92
2019-05-17T19:22:35.244Z,100797.29
2019-05-17T19:25:04.648Z,100792.69
2019-05-17T19:27:32.912Z,100795.55
2019-05-17T19:30:01.174Z,100800.11
2019-05-17T19:32:29.364Z,100807.69
2019-05-17T19:34:57.752Z,100801.12
2019-05-17T19:37:26.106Z,100798.70
2019-05-17T19:39:54.307Z,100800.49
2019-05-17T19:42:23.258Z,100801.09
2019-05-17T19:44:59.218Z,100797.84
2019-05-17T19:47:21.515Z,100803.99
2019-05-17T19:49:49.720Z,100808.23
2019-05-17T19:52:17.935Z,100807.11
2019-05-17T19:54:46.196Z,100805.17
2019-05-17T19:57:14.432Z,100800.20
2019-05-17T19:59:42.658Z,100804.64
2019-05-17T20:02:10.898Z,100804.41
2019-05-17T20:04:39.113Z,100803.02
2019-05-17T20:07:07.327Z,100801.92
2019-05-17T20:09:35.585Z,100802.48
2019-05-17T20:12:03.793Z,100805.55
2019-05-17T20:14:32.022Z,100804.41
2019-05-17T20:17:00.229Z,100805.50
2019-05-17T20:19:28.460Z,100806.63
2019-05-17T20:21:56.668Z,100800.53
2019-05-17T20:24:24.884Z,100801.95
2019-05-17T20:26:53.108Z,100802.56
2019-05-17T20:29:21.321Z,100793.68
2019-05-17T20:31:49.558Z,100807.32
2019-05-17T20:34:17.790Z,100794.27
2019-05-17T20:36:46.018Z,100793.46
2019-05-17T20:39:14.233Z,100796.00
2019-05-17T20:41:42.537Z,100786.88
2019-05-17T20:44:11.022Z,100793.30
2019-05-17T20:46:39.234Z,100792.77
2019-05-17T20:49:07.537Z,100791.98
2019-05-17T20:51:35.757Z,100786.49
2019-05-17T20:54:04.003Z,100786.49
2019-05-17T20:56:33.387Z,100785.41
2019-05-17T20:59:01.635Z,100781.56
2019-05-17T21:01:29.877Z,100786.03
2019-05-17T21:03:58.083Z,100779.66
2019-05-17T21:06:26.312Z,100789.97
2019-05-17T21:08:54.561Z,100778.02
2019-05-17T21:11:22.762Z,100779.70
2019-05-17T21:13:50.979Z,100773.05
2019-05-17T21:16:19.187Z,100766.66
2019-05-17T21:18:47.403Z,100762.24
2019-05-17T21:21:15.625Z,100773.61
2019-05-17T21:23:43.863Z,100778.08
2019-05-17T21:26:12.087Z,100767.26
2019-05-17T21:28:40.315Z,100768.11
2019-05-17T21:31:08.594Z,100767.86
2019-05-17T21:33:36.801Z,100767.02
2019-05-17T21:36:05.831Z,100770.09
2019-05-17T21:38:34.054Z,100772.87
2019-05-17T21:41:02.328Z,100768.42
2019-05-17T21:43:30.573Z,100771.48
2019-05-17T21:46:03.748Z,100768.17
2019-05-17T21:48:30.558Z,100773.72
2019-05-17T21:50:59.035Z,100773.18
2019-05-17T21:53:27.268Z,100775.41
2019-05-17T21:55:55.488Z,100773.77
2019-05-17T21:58:23.708Z,100779.33
2019-05-17T22:01:04.124Z,100775.46
2019-05-17T22:03:32.463Z,100778.24
2019-05-17T22:06:00.685Z,100774.92
2019-05-17T22:08:28.912Z,100775.22
2019-05-17T22:10:57.116Z,100771.34
2019-05-17T22:13:25.370Z,100775.52
2019-05-17T22:15:53.585Z,100768.57
2019-05-17T22:18:21.812Z,100772.73
2019-05-17T22:20:50.039Z,100775.80
2019-05-17T22:23:18.270Z,100772.19
2019-05-17T22:25:46.492Z,100771.64
2019-05-17T22:28:14.713Z,100767.19
2019-05-17T22:30:42.932Z,100774.42
2019-05-17T22:33:11.253Z,100774.12
2019-05-17T22:35:39.473Z,100771.09
2019-05-17T22:38:07.703Z,100763.56
2019-05-17T22:40:35.943Z,100768.02
2019-05-17T22:43:04.168Z,100765.80
2019-05-17T22:45:32.378Z,100762.47
2019-05-17T22:48:00.596Z,100761.09
2019-05-17T22:50:28.841Z,100748.88
2019-05-17T22:52:57.154Z,100753.88
2019-05-17T22:55:25.364Z,100754.69
2019-05-17T22:57:53.615Z,100752.20
2019-05-17T23:00:21.897Z,100748.89
2019-05-17T23:02:50.122Z,100746.95
2019-05-17T23:05:25.980Z,100748.08
2019-05-17T23:07:49.411Z,100751.17
2019-05-17T23:10:17.681Z,100759.23
2019-05-17T23:12:45.857Z,100750.06
2019-05-17T23:15:14.085Z,100749.26
2019-05-17T23:17:42.300Z,100750.64
2019-05-17T23:20:10.527Z,100755.08
2019-05-17T23:22:38.767Z,100750.95
2019-05-17T23:25:07.289Z,100752.05
2019-05-17T23:27:35.504Z,100748.45
2019-05-17T23:30:04.962Z,100744.00
2019-05-17T23:32:33.179Z,100744.00
2019-05-17T23:35:01.409Z,100745.39
2019-05-17T23:37:29.665Z,100734.04
2019-05-17T23:39:57.870Z,100739.30
2019-05-17T23:42:26.077Z,100739.56
2019-05-17T23:44:54.300Z,100740.14
2019-05-17T23:47:22.515Z,100741.23
2019-05-17T23:49:50.740Z,100740.97
2019-05-17T23:52:18.998Z,100737.90
2019-05-17T23:54:47.175Z,100746.51
2019-05-17T23:57:15.407Z,100740.70
2019-05-17T23:59:43.627Z,100737.63
